sensor_id;sensor_type;location;lat;lon;timestamp;temperature;humidity
41058;DHT22;27499;48.884;2.258;2022-11-20T00:01:12;10.80;99.90
41058;DHT22;27499;48.884;2.258;2022-11-20T00:03:39;10.80;99.90
41058;DHT22;27499;48.884;2.258;2022-11-20T00:06:10;10.80;99.90
41058;DHT22;27499;48.884;2.258;2022-11-20T00:08:37;10.70;99.90
41058;DHT22;27499;48.884;2.258;2022-11-20T00:11:08;10.70;99.90
41058;DHT22;27499;48.884;2.258;2022-11-20T00:13:42;10.70;99.90
41058;DHT22;27499;48.884;2.258;2022-11-20T00:16:11;10.70;99.90
41058;DHT22;27499;48.884;2.258;2022-11-20T00:18:39;10.70;99.90
41058;DHT22;27499;48.884;2.258;2022-11-20T00:21:09;10.60;99.90
41058;DHT22;27499;48.884;2.258;2022-11-20T00:23:36;10.60;99.90
41058;DHT22;27499;48.884;2.258;2022-11-20T00:26:09;10.60;99.90
41058;DHT22;27499;48.884;2.258;2022-11-20T00:28:36;10.60;99.90
41058;DHT22;27499;48.884;2.258;2022-11-20T00:31:11;10.60;99.90
41058;DHT22;27499;48.884;2.258;2022-11-20T00:33:39;10.60;99.90
41058;DHT22;27499;48.884;2.258;2022-11-20T00:36:23;10.60;99.90
41058;DHT22;27499;48.884;2.258;2022-11-20T00:38:52;10.60;99.90
41058;DHT22;27499;48.884;2.258;2022-11-20T00:41:20;10.50;99.90
41058;DHT22;27499;48.884;2.258;2022-11-20T00:43:47;10.50;99.90
41058;DHT22;27499;48.884;2.258;2022-11-20T00:46:16;10.50;99.90
41058;DHT22;27499;48.884;2.258;2022-11-20T00:48:43;10.50;99.90
41058;DHT22;27499;48.884;2.258;2022-11-20T00:51:12;10.50;99.90
41058;DHT22;27499;48.884;2.258;2022-11-20T00:53:39;10.40;99.90
41058;DHT22;27499;48.884;2.258;2022-11-20T00:56:12;10.40;99.90
41058;DHT22;27499;48.884;2.258;2022-11-20T00:58:41;10.40;99.90
41058;DHT22;27499;48.884;2.258;2022-11-20T01:01:26;10.40;99.90
41058;DHT22;27499;48.884;2.258;2022-11-20T01:03:58;10.40;99.90
41058;DHT22;27499;48.884;2.258;2022-11-20T01:06:28;10.40;99.90
41058;DHT22;27499;48.884;2.258;2022-11-20T01:08:57;10.40;99.90
41058;DHT22;27499;48.884;2.258;2022-11-20T01:11:27;10.40;99.90
41058;DHT22;27499;48.884;2.258;2022-11-20T01:13:56;10.30;99.90
41058;DHT22;27499;48.884;2.258;2022-11-20T01:16:28;10.30;99.90
41058;DHT22;27499;48.884;2.258;2022-11-20T01:18:57;10.30;99.90
41058;DHT22;27499;48.884;2.258;2022-11-20T01:21:30;10.30;99.90
41058;DHT22;27499;48.884;2.258;2022-11-20T01:23:58;10.30;99.90
41058;DHT22;27499;48.884;2.258;2022-11-20T01:26:30;10.30;99.90
41058;DHT22;27499;48.884;2.258;2022-11-20T01:28:58;10.30;99.90
41058;DHT22;27499;48.884;2.258;2022-11-20T01:33:55;10.30;99.90
41058;DHT22;27499;48.884;2.258;2022-11-20T01:36:26;10.30;99.90
41058;DHT22;27499;48.884;2.258;2022-11-20T01:38:55;10.20;99.90
41058;DHT22;27499;48.884;2.258;2022-11-20T01:41:27;10.20;99.90
41058;DHT22;27499;48.884;2.258;2022-11-20T01:44:14;10.20;99.90
41058;DHT22;27499;48.884;2.258;2022-11-20T01:47:02;10.20;99.90
41058;DHT22;27499;48.884;2.258;2022-11-20T01:52:27;10.10;99.90
41058;DHT22;27499;48.884;2.258;2022-11-20T01:54:56;10.10;99.90
41058;DHT22;27499;48.884;2.258;2022-11-20T01:57:28;10.10;99.90
41058;DHT22;27499;48.884;2.258;2022-11-20T02:00:00;10.10;99.90
41058;DHT22;27499;48.884;2.258;2022-11-20T02:02:28;10.10;99.90
41058;DHT22;27499;48.884;2.258;2022-11-20T02:04:58;10.00;99.90
41058;DHT22;27499;48.884;2.258;2022-11-20T02:07:27;10.10;99.90
41058;DHT22;27499;48.884;2.258;2022-11-20T02:09:54;10.10;99.90
41058;DHT22;27499;48.884;2.258;2022-11-20T02:12:24;10.10;99.90
41058;DHT22;27499;48.884;2.258;2022-11-20T02:15:10;10.10;99.90
41058;DHT22;27499;48.884;2.258;2022-11-20T02:17:37;10.10;99.90
41058;DHT22;27499;48.884;2.258;2022-11-20T02:20:05;10.10;99.90
41058;DHT22;27499;48.884;2.258;2022-11-20T02:22:47;10.10;99.90
41058;DHT22;27499;48.884;2.258;2022-11-20T02:25:17;10.10;99.90
41058;DHT22;27499;48.884;2.258;2022-11-20T02:27:45;10.10;99.90
41058;DHT22;27499;48.884;2.258;2022-11-20T02:30:12;10.10;99.90
41058;DHT22;27499;48.884;2.258;2022-11-20T02:32:40;10.10;99.90
41058;DHT22;27499;48.884;2.258;2022-11-20T02:37:50;10.10;99.90
41058;DHT22;27499;48.884;2.258;2022-11-20T02:40:19;10.10;99.90
41058;DHT22;27499;48.884;2.258;2022-11-20T02:42:46;10.10;99.90
41058;DHT22;27499;48.884;2.258;2022-11-20T02:45:13;10.10;99.90
41058;DHT22;27499;48.884;2.258;2022-11-20T02:47:40;10.10;99.90
41058;DHT22;27499;48.884;2.258;2022-11-20T02:50:07;10.10;99.90
41058;DHT22;27499;48.884;2.258;2022-11-20T02:52:33;10.00;99.90
41058;DHT22;27499;48.884;2.258;2022-11-20T02:55:00;10.00;99.90
41058;DHT22;27499;48.884;2.258;2022-11-20T02:57:27;9.90;99.90
41058;DHT22;27499;48.884;2.258;2022-11-20T02:59:54;9.90;99.90
41058;DHT22;27499;48.884;2.258;2022-11-20T03:02:21;9.90;99.90
41058;DHT22;27499;48.884;2.258;2022-11-20T03:04:48;9.90;99.90
41058;DHT22;27499;48.884;2.258;2022-11-20T03:07:15;9.80;99.90
41058;DHT22;27499;48.884;2.258;2022-11-20T03:09:41;9.80;99.90
41058;DHT22;27499;48.884;2.258;2022-11-20T03:12:08;9.80;99.90
41058;DHT22;27499;48.884;2.258;2022-11-20T03:14:35;9.80;99.90
41058;DHT22;27499;48.884;2.258;2022-11-20T03:17:02;9.70;99.90
41058;DHT22;27499;48.884;2.258;2022-11-20T03:19:29;9.70;99.90
41058;DHT22;27499;48.884;2.258;2022-11-20T03:21:56;9.60;99.90
41058;DHT22;27499;48.884;2.258;2022-11-20T03:24:23;9.60;99.90
41058;DHT22;27499;48.884;2.258;2022-11-20T03:26:49;9.70;99.90
41058;DHT22;27499;48.884;2.258;2022-11-20T03:29:16;9.60;99.90
41058;DHT22;27499;48.884;2.258;2022-11-20T03:31:43;9.60;99.90
41058;DHT22;27499;48.884;2.258;2022-11-20T03:34:11;9.60;99.90
41058;DHT22;27499;48.884;2.258;2022-11-20T03:36:39;9.60;99.90
41058;DHT22;27499;48.884;2.258;2022-11-20T03:39:07;9.60;99.90
41058;DHT22;27499;48.884;2.258;2022-11-20T03:41:40;9.60;99.90
41058;DHT22;27499;48.884;2.258;2022-11-20T03:44:09;9.50;99.90
41058;DHT22;27499;48.884;2.258;2022-11-20T03:46:37;9.50;99.90
41058;DHT22;27499;48.884;2.258;2022-11-20T03:49:04;9.50;99.90
41058;DHT22;27499;48.884;2.258;2022-11-20T03:51:35;9.50;99.90
41058;DHT22;27499;48.884;2.258;2022-11-20T03:54:04;9.40;99.90
41058;DHT22;27499;48.884;2.258;2022-11-20T03:56:34;9.50;99.90
41058;DHT22;27499;48.884;2.258;2022-11-20T03:59:01;9.50;99.90
41058;DHT22;27499;48.884;2.258;2022-11-20T04:01:34;9.40;99.90
41058;DHT22;27499;48.884;2.258;2022-11-20T04:04:01;9.50;99.90
41058;DHT22;27499;48.884;2.258;2022-11-20T04:06:33;9.50;99.90
41058;DHT22;27499;48.884;2.258;2022-11-20T04:09:00;9.50;99.90
41058;DHT22;27499;48.884;2.258;2022-11-20T04:11:29;9.50;99.90
41058;DHT22;27499;48.884;2.258;2022-11-20T04:13:58;9.50;99.90
41058;DHT22;27499;48.884;2.258;2022-11-20T04:16:26;9.50;99.90
41058;DHT22;27499;48.884;2.258;2022-11-20T04:18:59;9.50;99.90
41058;DHT22;27499;48.884;2.258;2022-11-20T04:21:27;9.50;99.90
41058;DHT22;27499;48.884;2.258;2022-11-20T04:23:55;9.50;99.90
41058;DHT22;27499;48.884;2.258;2022-11-20T04:26:24;9.50;99.90
41058;DHT22;27499;48.884;2.258;2022-11-20T04:28:51;9.50;99.90
41058;DHT22;27499;48.884;2.258;2022-11-20T04:31:23;9.50;99.90
41058;DHT22;27499;48.884;2.258;2022-11-20T04:33:50;9.50;99.90
41058;DHT22;27499;48.884;2.258;2022-11-20T04:36:25;9.50;99.90
41058;DHT22;27499;48.884;2.258;2022-11-20T04:39:03;9.50;99.90
41058;DHT22;27499;48.884;2.258;2022-11-20T04:41:33;9.60;99.90
41058;DHT22;27499;48.884;2.258;2022-11-20T04:44:02;9.60;99.90
41058;DHT22;27499;48.884;2.258;2022-11-20T04:46:33;9.60;99.90
41058;DHT22;27499;48.884;2.258;2022-11-20T04:49:00;9.60;99.90
41058;DHT22;27499;48.884;2.258;2022-11-20T04:51:27;9.60;99.90
41058;DHT22;27499;48.884;2.258;2022-11-20T04:53:54;9.60;99.90
41058;DHT22;27499;48.884;2.258;2022-11-20T04:56:22;9.60;99.90
41058;DHT22;27499;48.884;2.258;2022-11-20T04:58:49;9.60;99.90
41058;DHT22;27499;48.884;2.258;2022-11-20T05:01:21;9.60;99.90
41058;DHT22;27499;48.884;2.258;2022-11-20T05:03:49;9.60;99.90
41058;DHT22;27499;48.884;2.258;2022-11-20T05:06:18;9.60;99.90
41058;DHT22;27499;48.884;2.258;2022-11-20T05:08:45;9.60;99.90
41058;DHT22;27499;48.884;2.258;2022-11-20T05:11:17;9.60;99.90
41058;DHT22;27499;48.884;2.258;2022-11-20T05:13:45;9.60;99.90
41058;DHT22;27499;48.884;2.258;2022-11-20T05:16:14;9.60;99.90
41058;DHT22;27499;48.884;2.258;2022-11-20T05:18:41;9.60;99.90
41058;DHT22;27499;48.884;2.258;2022-11-20T05:21:10;9.50;99.90
41058;DHT22;27499;48.884;2.258;2022-11-20T05:23:37;9.50;99.90
41058;DHT22;27499;48.884;2.258;2022-11-20T05:26:07;9.50;99.90
41058;DHT22;27499;48.884;2.258;2022-11-20T05:28:34;9.50;99.90
41058;DHT22;27499;48.884;2.258;2022-11-20T05:31:09;9.50;99.90
41058;DHT22;27499;48.884;2.258;2022-11-20T05:33:37;9.50;99.90
41058;DHT22;27499;48.884;2.258;2022-11-20T05:36:06;9.50;99.90
41058;DHT22;27499;48.884;2.258;2022-11-20T05:38:33;9.50;99.90
41058;DHT22;27499;48.884;2.258;2022-11-20T05:41:12;9.50;99.90
41058;DHT22;27499;48.884;2.258;2022-11-20T05:43:40;9.50;99.90
41058;DHT22;27499;48.884;2.258;2022-11-20T05:46:10;9.40;99.90
41058;DHT22;27499;48.884;2.258;2022-11-20T05:48:38;9.40;99.90
41058;DHT22;27499;48.884;2.258;2022-11-20T05:51:08;9.40;99.90
41058;DHT22;27499;48.884;2.258;2022-11-20T05:53:35;9.40;99.90
41058;DHT22;27499;48.884;2.258;2022-11-20T05:56:05;9.40;99.90
41058;DHT22;27499;48.884;2.258;2022-11-20T05:58:32;9.40;99.90
41058;DHT22;27499;48.884;2.258;2022-11-20T06:01:08;9.40;99.90
41058;DHT22;27499;48.884;2.258;2022-11-20T06:03:36;9.30;99.90
41058;DHT22;27499;48.884;2.258;2022-11-20T06:06:04;9.30;99.90
41058;DHT22;27499;48.884;2.258;2022-11-20T06:08:31;9.40;99.90
41058;DHT22;27499;48.884;2.258;2022-11-20T06:11:02;9.30;99.90
41058;DHT22;27499;48.884;2.258;2022-11-20T06:13:29;9.30;99.90
41058;DHT22;27499;48.884;2.258;2022-11-20T06:15:55;9.30;99.90
41058;DHT22;27499;48.884;2.258;2022-11-20T06:18:22;9.30;99.90
41058;DHT22;27499;48.884;2.258;2022-11-20T06:20:49;9.30;99.90
41058;DHT22;27499;48.884;2.258;2022-11-20T06:23:16;9.30;99.90
41058;DHT22;27499;48.884;2.258;2022-11-20T06:25:43;9.30;99.90
41058;DHT22;27499;48.884;2.258;2022-11-20T06:28:10;9.30;99.90
41058;DHT22;27499;48.884;2.258;2022-11-20T06:30:37;9.40;99.90
41058;DHT22;27499;48.884;2.258;2022-11-20T06:33:03;9.30;99.90
41058;DHT22;27499;48.884;2.258;2022-11-20T06:35:30;9.40;99.90
41058;DHT22;27499;48.884;2.258;2022-11-20T06:37:57;9.30;99.90
41058;DHT22;27499;48.884;2.258;2022-11-20T06:40:24;9.30;99.90
41058;DHT22;27499;48.884;2.258;2022-11-20T06:42:52;9.30;99.90
41058;DHT22;27499;48.884;2.258;2022-11-20T06:45:19;9.30;99.90
41058;DHT22;27499;48.884;2.258;2022-11-20T06:47:46;9.30;99.90
41058;DHT22;27499;48.884;2.258;2022-11-20T06:50:13;9.30;99.90
41058;DHT22;27499;48.884;2.258;2022-11-20T06:52:40;9.40;99.90
41058;DHT22;27499;48.884;2.258;2022-11-20T06:55:09;9.40;99.90
41058;DHT22;27499;48.884;2.258;2022-11-20T06:57:36;9.30;99.90
41058;DHT22;27499;48.884;2.258;2022-11-20T07:00:03;9.30;99.90
41058;DHT22;27499;48.884;2.258;2022-11-20T07:02:30;9.30;99.90
41058;DHT22;27499;48.884;2.258;2022-11-20T07:04:57;9.40;99.90
41058;DHT22;27499;48.884;2.258;2022-11-20T07:07:23;9.40;99.90
41058;DHT22;27499;48.884;2.258;2022-11-20T07:09:50;9.40;99.90
41058;DHT22;27499;48.884;2.258;2022-11-20T07:12:17;9.50;99.90
41058;DHT22;27499;48.884;2.258;2022-11-20T07:14:44;9.50;99.90
41058;DHT22;27499;48.884;2.258;2022-11-20T07:17:11;9.50;99.90
41058;DHT22;27499;48.884;2.258;2022-11-20T07:19:38;9.50;99.90
41058;DHT22;27499;48.884;2.258;2022-11-20T07:22:05;9.50;99.90
41058;DHT22;27499;48.884;2.258;2022-11-20T07:24:32;9.50;99.90
41058;DHT22;27499;48.884;2.258;2022-11-20T07:26:59;9.50;99.90
41058;DHT22;27499;48.884;2.258;2022-11-20T07:29:26;9.60;99.90
41058;DHT22;27499;48.884;2.258;2022-11-20T07:31:53;9.60;99.90
41058;DHT22;27499;48.884;2.258;2022-11-20T07:34:22;9.50;99.90
41058;DHT22;27499;48.884;2.258;2022-11-20T07:36:49;9.40;99.90
41058;DHT22;27499;48.884;2.258;2022-11-20T07:39:16;9.50;99.90
41058;DHT22;27499;48.884;2.258;2022-11-20T07:41:42;9.40;99.90
41058;DHT22;27499;48.884;2.258;2022-11-20T07:44:09;9.50;99.90
41058;DHT22;27499;48.884;2.258;2022-11-20T07:46:36;9.50;99.90
41058;DHT22;27499;48.884;2.258;2022-11-20T07:49:03;9.50;99.90
41058;DHT22;27499;48.884;2.258;2022-11-20T07:51:30;9.50;99.90
41058;DHT22;27499;48.884;2.258;2022-11-20T07:53:56;9.60;99.90
41058;DHT22;27499;48.884;2.258;2022-11-20T07:56:24;9.60;99.90
41058;DHT22;27499;48.884;2.258;2022-11-20T07:58:51;9.60;99.90
41058;DHT22;27499;48.884;2.258;2022-11-20T08:01:17;9.60;99.90
41058;DHT22;27499;48.884;2.258;2022-11-20T08:03:44;9.60;99.90
41058;DHT22;27499;48.884;2.258;2022-11-20T08:06:11;9.60;99.90
41058;DHT22;27499;48.884;2.258;2022-11-20T08:08:38;9.60;99.90
41058;DHT22;27499;48.884;2.258;2022-11-20T08:11:08;9.60;99.90
41058;DHT22;27499;48.884;2.258;2022-11-20T08:13:54;9.70;99.90
41058;DHT22;27499;48.884;2.258;2022-11-20T08:16:40;9.70;99.90
41058;DHT22;27499;48.884;2.258;2022-11-20T08:19:07;9.60;99.90
41058;DHT22;27499;48.884;2.258;2022-11-20T08:21:34;9.70;99.90
41058;DHT22;27499;48.884;2.258;2022-11-20T08:24:04;9.70;99.90
41058;DHT22;27499;48.884;2.258;2022-11-20T08:26:31;9.70;99.90
41058;DHT22;27499;48.884;2.258;2022-11-20T08:28:59;9.80;99.90
41058;DHT22;27499;48.884;2.258;2022-11-20T08:31:26;9.80;99.90
41058;DHT22;27499;48.884;2.258;2022-11-20T08:33:53;9.80;99.90
41058;DHT22;27499;48.884;2.258;2022-11-20T08:36:21;9.80;99.90
41058;DHT22;27499;48.884;2.258;2022-11-20T08:38:53;9.80;99.90
41058;DHT22;27499;48.884;2.258;2022-11-20T08:41:21;9.80;99.90
41058;DHT22;27499;48.884;2.258;2022-11-20T08:43:52;9.80;99.90
41058;DHT22;27499;48.884;2.258;2022-11-20T08:46:19;9.80;99.90
41058;DHT22;27499;48.884;2.258;2022-11-20T08:48:46;9.80;99.90
41058;DHT22;27499;48.884;2.258;2022-11-20T08:51:13;9.80;99.90
41058;DHT22;27499;48.884;2.258;2022-11-20T08:53:41;9.80;99.90
41058;DHT22;27499;48.884;2.258;2022-11-20T08:56:08;9.80;99.90
41058;DHT22;27499;48.884;2.258;2022-11-20T08:58:37;9.90;99.90
41058;DHT22;27499;48.884;2.258;2022-11-20T09:01:23;9.80;99.90
41058;DHT22;27499;48.884;2.258;2022-11-20T09:03:50;9.90;99.90
41058;DHT22;27499;48.884;2.258;2022-11-20T09:06:18;9.90;99.90
41058;DHT22;27499;48.884;2.258;2022-11-20T09:08:45;9.90;99.90
41058;DHT22;27499;48.884;2.258;2022-11-20T09:11:11;9.90;99.90
41058;DHT22;27499;48.884;2.258;2022-11-20T09:13:38;9.90;99.90
41058;DHT22;27499;48.884;2.258;2022-11-20T09:16:08;9.90;99.90
41058;DHT22;27499;48.884;2.258;2022-11-20T09:18:35;9.90;99.90
41058;DHT22;27499;48.884;2.258;2022-11-20T09:21:06;9.90;99.90
41058;DHT22;27499;48.884;2.258;2022-11-20T09:23:35;9.90;99.90
41058;DHT22;27499;48.884;2.258;2022-11-20T09:26:06;9.90;99.90
41058;DHT22;27499;48.884;2.258;2022-11-20T09:28:33;9.90;99.90
41058;DHT22;27499;48.884;2.258;2022-11-20T09:31:00;10.00;99.90
41058;DHT22;27499;48.884;2.258;2022-11-20T09:33:30;9.90;99.90
41058;DHT22;27499;48.884;2.258;2022-11-20T09:35:57;9.90;99.90
41058;DHT22;27499;48.884;2.258;2022-11-20T09:38:24;9.80;99.90
41058;DHT22;27499;48.884;2.258;2022-11-20T09:40:58;9.90;99.90
41058;DHT22;27499;48.884;2.258;2022-11-20T09:49:28;9.80;99.90
41058;DHT22;27499;48.884;2.258;2022-11-20T09:52:05;9.80;99.90
41058;DHT22;27499;48.884;2.258;2022-11-20T09:54:38;9.80;99.90
41058;DHT22;27499;48.884;2.258;2022-11-20T09:57:11;9.80;99.90
41058;DHT22;27499;48.884;2.258;2022-11-20T09:59:44;9.80;99.90
41058;DHT22;27499;48.884;2.258;2022-11-20T10:02:38;9.80;99.90
41058;DHT22;27499;48.884;2.258;2022-11-20T10:05:18;9.80;99.90
41058;DHT22;27499;48.884;2.258;2022-11-20T10:30:13;9.90;99.90
41058;DHT22;27499;48.884;2.258;2022-11-20T10:32:50;10.00;99.90
41058;DHT22;27499;48.884;2.258;2022-11-20T10:35:26;10.00;99.90
41058;DHT22;27499;48.884;2.258;2022-11-20T10:37:55;10.00;99.90
41058;DHT22;27499;48.884;2.258;2022-11-20T10:40:34;10.00;99.90
41058;DHT22;27499;48.884;2.258;2022-11-20T10:43:25;10.00;99.90
41058;DHT22;27499;48.884;2.258;2022-11-20T10:46:01;10.10;99.90
41058;DHT22;27499;48.884;2.258;2022-11-20T10:48:31;10.10;99.90
41058;DHT22;27499;48.884;2.258;2022-11-20T10:53:51;10.20;99.90
41058;DHT22;27499;48.884;2.258;2022-11-20T10:56:30;10.20;99.90
41058;DHT22;27499;48.884;2.258;2022-11-20T11:01:40;10.30;99.90
41058;DHT22;27499;48.884;2.258;2022-11-20T11:04:32;10.30;99.90
41058;DHT22;27499;48.884;2.258;2022-11-20T11:07:12;10.40;99.90
41058;DHT22;27499;48.884;2.258;2022-11-20T11:09:43;10.40;99.90
41058;DHT22;27499;48.884;2.258;2022-11-20T11:12:11;10.40;99.90
41058;DHT22;27499;48.884;2.258;2022-11-20T11:14:46;10.50;99.90
41058;DHT22;27499;48.884;2.258;2022-11-20T11:17:46;10.50;99.90
41058;DHT22;27499;48.884;2.258;2022-11-20T11:20:25;10.50;99.90
41058;DHT22;27499;48.884;2.258;2022-11-20T11:22:57;10.50;99.90
41058;DHT22;27499;48.884;2.258;2022-11-20T11:25:37;10.50;99.90
41058;DHT22;27499;48.884;2.258;2022-11-20T11:28:20;10.50;99.90
41058;DHT22;27499;48.884;2.258;2022-11-20T11:30:47;10.50;99.90
41058;DHT22;27499;48.884;2.258;2022-11-20T11:33:21;10.50;99.90
41058;DHT22;27499;48.884;2.258;2022-11-20T11:35:57;10.50;99.90
41058;DHT22;27499;48.884;2.258;2022-11-20T11:38:34;10.50;99.90
41058;DHT22;27499;48.884;2.258;2022-11-20T11:41:03;10.60;99.90
41058;DHT22;27499;48.884;2.258;2022-11-20T11:43:35;10.60;99.90
41058;DHT22;27499;48.884;2.258;2022-11-20T11:46:29;10.60;99.90
41058;DHT22;27499;48.884;2.258;2022-11-20T11:48:59;10.60;99.90
41058;DHT22;27499;48.884;2.258;2022-11-20T11:51:51;10.60;99.90
41058;DHT22;27499;48.884;2.258;2022-11-20T11:54:39;10.60;99.90
41058;DHT22;27499;48.884;2.258;2022-11-20T11:57:46;10.60;99.90
41058;DHT22;27499;48.884;2.258;2022-11-20T12:00:19;10.60;99.90
41058;DHT22;27499;48.884;2.258;2022-11-20T12:07:57;10.60;99.90
41058;DHT22;27499;48.884;2.258;2022-11-20T12:16:14;10.60;99.90
41058;DHT22;27499;48.884;2.258;2022-11-20T12:18:48;10.60;99.90
41058;DHT22;27499;48.884;2.258;2022-11-20T12:21:23;10.60;99.90
41058;DHT22;27499;48.884;2.258;2022-11-20T12:23:59;10.60;99.90
41058;DHT22;27499;48.884;2.258;2022-11-20T12:31:48;10.60;99.90
41058;DHT22;27499;48.884;2.258;2022-11-20T12:37:37;10.60;99.90
41058;DHT22;27499;48.884;2.258;2022-11-20T12:40:32;10.60;99.90
41058;DHT22;27499;48.884;2.258;2022-11-20T12:46:06;10.60;99.90
41058;DHT22;27499;48.884;2.258;2022-11-20T12:57:29;10.70;99.90
41058;DHT22;27499;48.884;2.258;2022-11-20T13:00:11;10.60;99.90
41058;DHT22;27499;48.884;2.258;2022-11-20T13:03:00;10.70;99.90
41058;DHT22;27499;48.884;2.258;2022-11-20T13:08:28;10.70;99.90
41058;DHT22;27499;48.884;2.258;2022-11-20T13:19:32;10.90;99.90
41058;DHT22;27499;48.884;2.258;2022-11-20T13:21:59;10.90;99.90
41058;DHT22;27499;48.884;2.258;2022-11-20T13:24:29;10.80;99.90
41058;DHT22;27499;48.884;2.258;2022-11-20T13:29:46;10.90;99.90
41058;DHT22;27499;48.884;2.258;2022-11-20T13:32:20;10.90;99.90
41058;DHT22;27499;48.884;2.258;2022-11-20T13:37:35;10.90;99.90
41058;DHT22;27499;48.884;2.258;2022-11-20T13:45:31;10.90;99.90
41058;DHT22;27499;48.884;2.258;2022-11-20T13:48:03;11.00;99.90
41058;DHT22;27499;48.884;2.258;2022-11-20T13:53:29;11.00;99.90
41058;DHT22;27499;48.884;2.258;2022-11-20T13:56:08;11.00;99.90
41058;DHT22;27499;48.884;2.258;2022-11-20T14:01:24;11.10;99.90
41058;DHT22;27499;48.884;2.258;2022-11-20T14:03:53;11.10;99.90
41058;DHT22;27499;48.884;2.258;2022-11-20T14:06:43;11.10;99.90
41058;DHT22;27499;48.884;2.258;2022-11-20T14:09:13;11.10;99.90
41058;DHT22;27499;48.884;2.258;2022-11-20T14:11:50;11.10;99.90
41058;DHT22;27499;48.884;2.258;2022-11-20T14:14:20;11.10;99.90
41058;DHT22;27499;48.884;2.258;2022-11-20T14:16:49;11.10;99.90
41058;DHT22;27499;48.884;2.258;2022-11-20T14:21:51;11.10;99.90
41058;DHT22;27499;48.884;2.258;2022-11-20T14:24:20;11.10;99.90
41058;DHT22;27499;48.884;2.258;2022-11-20T14:26:48;11.10;99.90
41058;DHT22;27499;48.884;2.258;2022-11-20T14:29:25;11.10;99.90
41058;DHT22;27499;48.884;2.258;2022-11-20T14:31:54;11.10;99.90
41058;DHT22;27499;48.884;2.258;2022-11-20T14:34:33;11.10;99.90
41058;DHT22;27499;48.884;2.258;2022-11-20T14:37:06;11.00;99.90
41058;DHT22;27499;48.884;2.258;2022-11-20T14:39:48;11.10;99.90
41058;DHT22;27499;48.884;2.258;2022-11-20T14:42:17;11.10;99.90
41058;DHT22;27499;48.884;2.258;2022-11-20T14:44:45;11.10;99.90
41058;DHT22;27499;48.884;2.258;2022-11-20T14:47:13;11.10;99.90
41058;DHT22;27499;48.884;2.258;2022-11-20T14:49:42;11.10;99.90
41058;DHT22;27499;48.884;2.258;2022-11-20T14:52:27;11.10;99.90
41058;DHT22;27499;48.884;2.258;2022-11-20T14:54:57;11.10;99.90
41058;DHT22;27499;48.884;2.258;2022-11-20T14:57:30;11.10;99.90
41058;DHT22;27499;48.884;2.258;2022-11-20T15:00:06;11.10;99.90
41058;DHT22;27499;48.884;2.258;2022-11-20T15:02:38;11.10;99.90
41058;DHT22;27499;48.884;2.258;2022-11-20T15:05:05;11.10;99.90
41058;DHT22;27499;48.884;2.258;2022-11-20T15:07:43;11.10;99.90
41058;DHT22;27499;48.884;2.258;2022-11-20T15:12:53;11.20;99.90
41058;DHT22;27499;48.884;2.258;2022-11-20T15:15:34;11.20;99.90
41058;DHT22;27499;48.884;2.258;2022-11-20T15:18:03;11.20;99.90
41058;DHT22;27499;48.884;2.258;2022-11-20T15:20:32;11.20;99.90
41058;DHT22;27499;48.884;2.258;2022-11-20T15:22:59;11.20;99.90
41058;DHT22;27499;48.884;2.258;2022-11-20T15:25:26;11.20;99.90
41058;DHT22;27499;48.884;2.258;2022-11-20T15:27:56;11.20;99.90
41058;DHT22;27499;48.884;2.258;2022-11-20T15:30:23;11.20;99.90
41058;DHT22;27499;48.884;2.258;2022-11-20T15:32:50;11.30;99.90
41058;DHT22;27499;48.884;2.258;2022-11-20T15:35:17;11.30;99.90
41058;DHT22;27499;48.884;2.258;2022-11-20T15:37:44;11.30;99.90
41058;DHT22;27499;48.884;2.258;2022-11-20T15:40:11;11.30;99.90
41058;DHT22;27499;48.884;2.258;2022-11-20T15:42:38;11.30;99.90
41058;DHT22;27499;48.884;2.258;2022-11-20T15:45:26;11.30;99.90
41058;DHT22;27499;48.884;2.258;2022-11-20T15:47:54;11.30;99.90
41058;DHT22;27499;48.884;2.258;2022-11-20T15:50:22;11.30;99.90
41058;DHT22;27499;48.884;2.258;2022-11-20T15:52:51;11.30;99.90
41058;DHT22;27499;48.884;2.258;2022-11-20T15:55:18;11.20;99.90
41058;DHT22;27499;48.884;2.258;2022-11-20T15:57:44;11.20;99.90
41058;DHT22;27499;48.884;2.258;2022-11-20T16:00:12;11.10;99.90
41058;DHT22;27499;48.884;2.258;2022-11-20T16:02:43;11.10;99.90
41058;DHT22;27499;48.884;2.258;2022-11-20T16:05:11;11.10;99.90
41058;DHT22;27499;48.884;2.258;2022-11-20T16:07:39;11.10;99.90
41058;DHT22;27499;48.884;2.258;2022-11-20T16:10:06;11.10;99.90
41058;DHT22;27499;48.884;2.258;2022-11-20T16:12:33;11.00;99.90
41058;DHT22;27499;48.884;2.258;2022-11-20T16:15:18;11.00;99.90
41058;DHT22;27499;48.884;2.258;2022-11-20T16:18:04;10.90;99.90
41058;DHT22;27499;48.884;2.258;2022-11-20T16:20:30;10.90;99.90
41058;DHT22;27499;48.884;2.258;2022-11-20T16:22:57;10.90;99.90
41058;DHT22;27499;48.884;2.258;2022-11-20T16:25:24;10.80;99.90
41058;DHT22;27499;48.884;2.258;2022-11-20T16:27:53;10.80;99.90
41058;DHT22;27499;48.884;2.258;2022-11-20T16:30:20;10.80;99.90
41058;DHT22;27499;48.884;2.258;2022-11-20T16:32:46;10.80;99.90
41058;DHT22;27499;48.884;2.258;2022-11-20T16:35:13;10.70;99.90
41058;DHT22;27499;48.884;2.258;2022-11-20T16:37:40;10.70;99.90
41058;DHT22;27499;48.884;2.258;2022-11-20T16:40:09;10.70;99.90
41058;DHT22;27499;48.884;2.258;2022-11-20T16:42:36;10.70;99.90
41058;DHT22;27499;48.884;2.258;2022-11-20T16:45:04;10.70;99.90
41058;DHT22;27499;48.884;2.258;2022-11-20T16:47:34;10.70;99.90
41058;DHT22;27499;48.884;2.258;2022-11-20T16:50:02;10.70;99.90
41058;DHT22;27499;48.884;2.258;2022-11-20T16:52:30;10.70;99.90
41058;DHT22;27499;48.884;2.258;2022-11-20T16:54:57;10.70;99.90
41058;DHT22;27499;48.884;2.258;2022-11-20T16:57:27;10.60;99.90
41058;DHT22;27499;48.884;2.258;2022-11-20T16:59:55;10.60;99.90
41058;DHT22;27499;48.884;2.258;2022-11-20T17:02:27;10.60;99.90
41058;DHT22;27499;48.884;2.258;2022-11-20T17:04:54;10.60;99.90
41058;DHT22;27499;48.884;2.258;2022-11-20T17:07:21;10.60;99.90
41058;DHT22;27499;48.884;2.258;2022-11-20T17:09:48;10.50;99.90
41058;DHT22;27499;48.884;2.258;2022-11-20T17:12:15;10.50;99.90
41058;DHT22;27499;48.884;2.258;2022-11-20T17:14:41;10.60;99.90
41058;DHT22;27499;48.884;2.258;2022-11-20T17:17:08;10.50;99.90
41058;DHT22;27499;48.884;2.258;2022-11-20T17:19:35;10.50;99.90
41058;DHT22;27499;48.884;2.258;2022-11-20T17:22:02;10.50;99.90
41058;DHT22;27499;48.884;2.258;2022-11-20T17:24:29;10.50;99.90
41058;DHT22;27499;48.884;2.258;2022-11-20T17:26:57;10.50;99.90
41058;DHT22;27499;48.884;2.258;2022-11-20T17:29:24;10.40;99.90
41058;DHT22;27499;48.884;2.258;2022-11-20T17:31:52;10.40;99.90
41058;DHT22;27499;48.884;2.258;2022-11-20T17:34:19;10.40;99.90
41058;DHT22;27499;48.884;2.258;2022-11-20T17:36:47;10.40;99.90
41058;DHT22;27499;48.884;2.258;2022-11-20T17:39:15;10.40;99.90
41058;DHT22;27499;48.884;2.258;2022-11-20T17:41:43;10.40;99.90
41058;DHT22;27499;48.884;2.258;2022-11-20T17:44:11;10.40;99.90